createdAt,value
2018-08-11T00:01:42.781Z,1.80
2018-08-11T00:04:12.518Z,1.63
2018-08-11T00:06:43.099Z,2.40
2018-08-11T00:09:13.169Z,1.93
2018-08-11T00:11:42.893Z,1.93
2018-08-11T00:14:13.093Z,1.80
2018-08-11T00:16:42.746Z,1.90
2018-08-11T00:19:12.428Z,2.00
2018-08-11T00:21:43.136Z,2.00
2018-08-11T00:24:12.825Z,1.90
2018-08-11T00:26:42.451Z,2.20
2018-08-11T00:29:12.521Z,2.30
2018-08-11T00:31:42.232Z,2.30
2018-08-11T00:34:11.921Z,1.93
2018-08-11T00:36:43.312Z,2.07
2018-08-11T00:39:13.583Z,2.07
2018-08-11T00:41:43.230Z,1.87
2018-08-11T00:44:12.939Z,2.20
2018-08-11T00:46:42.617Z,2.10
2018-08-11T00:49:12.305Z,2.20
2018-08-11T00:51:42.629Z,1.93
2018-08-11T00:54:12.336Z,2.13
2018-08-11T00:56:41.938Z,2.30
2018-08-11T00:59:11.765Z,1.77
2018-08-11T01:01:41.386Z,1.80
2018-08-11T01:04:11.028Z,2.00
2018-08-11T01:06:42.301Z,2.17
2018-08-11T01:09:12.463Z,2.63
2018-08-11T01:11:42.572Z,2.07
2018-08-11T01:14:12.816Z,2.33
2018-08-11T01:16:43.575Z,2.33
2018-08-11T01:19:14.411Z,2.43
2018-08-11T01:21:44.343Z,2.30
2018-08-11T01:24:14.448Z,2.47
2018-08-11T01:26:44.115Z,2.07
2018-08-11T01:29:13.863Z,2.10
2018-08-11T01:31:43.449Z,2.40
2018-08-11T01:34:13.954Z,2.47
2018-08-11T01:36:44.553Z,2.80
2018-08-11T01:39:14.358Z,2.10
2018-08-11T01:41:43.989Z,2.47
2018-08-11T01:44:14.230Z,2.50
2018-08-11T01:46:43.869Z,2.33
2018-08-11T01:49:13.767Z,2.43
2018-08-11T01:51:43.993Z,2.80
2018-08-11T01:54:13.981Z,2.70
2018-08-11T01:56:43.822Z,2.20
2018-08-11T01:59:13.668Z,2.80
2018-08-11T02:01:43.303Z,2.70
2018-08-11T02:04:13.507Z,2.63
2018-08-11T02:06:43.936Z,2.97
2018-08-11T02:09:14.308Z,3.10
2018-08-11T02:11:43.953Z,3.10
2018-08-11T02:14:14.050Z,2.70
2018-08-11T02:16:43.738Z,3.00
2018-08-11T02:19:13.803Z,2.90
2018-08-11T02:21:44.123Z,2.60
2018-08-11T02:24:14.503Z,2.63
2018-08-11T02:26:44.167Z,2.70
2018-08-11T02:29:14.762Z,2.90
2018-08-11T02:31:44.351Z,2.67
2018-08-11T02:34:14.143Z,2.80
2018-08-11T02:36:43.927Z,3.00
2018-08-11T02:39:15.487Z,2.40
2018-08-11T02:41:45.136Z,2.90
2018-08-11T02:44:15.665Z,2.83
2018-08-11T02:46:45.346Z,2.70
2018-08-11T02:49:15.396Z,2.80
2018-08-11T02:51:45.473Z,2.83
2018-08-11T02:54:15.534Z,2.63
2018-08-11T02:56:45.179Z,2.50
2018-08-11T02:59:19.565Z,3.00
2018-08-11T03:01:49.204Z,3.13
2018-08-11T03:04:18.975Z,3.03
2018-08-11T03:06:48.670Z,2.40
2018-08-11T03:09:18.250Z,2.67
2018-08-11T03:11:47.847Z,2.83
2018-08-11T03:14:17.927Z,2.87
2018-08-11T03:16:47.632Z,3.23
2018-08-11T03:19:17.262Z,2.73
2018-08-11T03:21:46.883Z,2.97
2018-08-11T03:24:16.520Z,3.27
2018-08-11T03:26:46.095Z,2.67
2018-08-11T03:29:16.454Z,3.00
2018-08-11T03:31:46.138Z,2.70
2018-08-11T03:34:15.971Z,3.00
2018-08-11T03:36:45.672Z,2.50
2018-08-11T03:39:15.437Z,3.17
2018-08-11T03:41:45.059Z,3.30
2018-08-11T03:44:15.499Z,3.10
2018-08-11T03:46:45.188Z,2.87
2018-08-11T03:49:15.359Z,2.70
2018-08-11T03:51:45.069Z,2.50
2018-08-11T03:54:15.669Z,2.23
2018-08-11T03:56:45.292Z,2.70
2018-08-11T03:59:15.799Z,2.67
2018-08-11T04:01:45.476Z,2.77
2018-08-11T04:04:15.913Z,2.83
2018-08-11T04:06:45.560Z,2.70
2018-08-11T04:09:15.904Z,3.00
2018-08-11T04:11:45.683Z,2.60
2018-08-11T04:14:15.983Z,3.23
2018-08-11T04:16:45.623Z,2.70
2018-08-11T04:19:16.053Z,2.50
2018-08-11T04:21:45.845Z,3.07
2018-08-11T04:24:16.450Z,2.80
2018-08-11T04:26:46.093Z,2.63
2018-08-11T04:29:16.171Z,2.80
2018-08-11T04:31:45.773Z,2.70
2018-08-11T04:34:16.186Z,2.80
2018-08-11T04:36:45.742Z,2.83
2018-08-11T04:39:15.975Z,2.70
2018-08-11T04:41:45.623Z,2.90
2018-08-11T04:44:15.655Z,2.60
2018-08-11T04:46:45.262Z,2.63
2018-08-11T04:49:15.751Z,2.60
2018-08-11T04:51:45.367Z,2.93
2018-08-11T04:54:15.316Z,2.97
2018-08-11T04:56:44.930Z,2.50
2018-08-11T04:59:15.012Z,2.20
2018-08-11T05:01:44.616Z,2.63
2018-08-11T05:04:14.249Z,2.80
2018-08-11T05:06:44.131Z,2.33
2018-08-11T05:09:14.947Z,2.40
2018-08-11T05:11:44.582Z,2.40
2018-08-11T05:14:14.819Z,2.53
2018-08-11T05:16:44.500Z,2.20
2018-08-11T05:19:14.243Z,2.90
2018-08-11T05:21:44.079Z,2.20
2018-08-11T05:24:13.740Z,2.70
2018-08-11T05:26:43.384Z,2.47
2018-08-11T05:29:13.439Z,2.13
2018-08-11T05:31:43.097Z,2.60
2018-08-11T05:34:12.677Z,2.83
2018-08-11T05:36:43.563Z,2.30
2018-08-11T05:39:14.611Z,2.33
2018-08-11T05:41:44.374Z,2.57
2018-08-11T05:44:14.402Z,2.80
2018-08-11T05:46:44.028Z,2.63
2018-08-11T05:49:13.634Z,2.60
2018-08-11T05:51:43.833Z,2.20
2018-08-11T05:54:13.462Z,2.60
2018-08-11T05:56:43.156Z,2.53
2018-08-11T05:59:13.535Z,2.40
2018-08-11T06:01:43.199Z,2.73
2018-08-11T06:04:13.063Z,2.50
2018-08-11T06:06:43.722Z,2.57
2018-08-11T06:09:13.484Z,2.43
2018-08-11T06:11:43.197Z,2.57
2018-08-11T06:14:13.485Z,2.13
2018-08-11T06:16:43.167Z,2.27
2018-08-11T06:19:12.914Z,2.70
2018-08-11T06:21:43.449Z,2.30
2018-08-11T06:24:13.111Z,2.07
2018-08-11T06:26:42.710Z,2.17
2018-08-11T06:29:13.478Z,2.47
2018-08-11T06:31:43.176Z,2.30
2018-08-11T06:34:12.877Z,2.50
2018-08-11T06:36:43.673Z,2.10
2018-08-11T06:39:14.694Z,2.37
2018-08-11T06:41:44.718Z,2.20
2018-08-11T06:44:14.991Z,2.17
2018-08-11T06:46:44.737Z,1.90
2018-08-11T06:49:14.317Z,2.10
2018-08-11T06:51:44.191Z,2.00
2018-08-11T06:54:13.880Z,1.83
2018-08-11T06:56:43.577Z,1.30
2018-08-11T06:59:14.838Z,1.80
2018-08-11T07:01:44.727Z,2.00
2018-08-11T07:04:14.398Z,1.80
2018-08-11T07:06:44.372Z,1.60
2018-08-11T07:09:14.004Z,1.57
2018-08-11T07:11:43.746Z,1.90
2018-08-11T07:14:13.995Z,1.53
2018-08-11T07:16:43.676Z,1.50
2018-08-11T07:19:13.888Z,1.50
2018-08-11T07:21:44.339Z,1.40
2018-08-11T07:24:14.464Z,1.60
2018-08-11T07:26:44.706Z,1.23
2018-08-11T07:29:15.297Z,1.50
2018-08-11T07:31:44.846Z,1.50
2018-08-11T07:34:14.497Z,1.37
2018-08-11T07:36:44.401Z,1.30
2018-08-11T07:39:14.090Z,1.60
2018-08-11T07:41:43.737Z,1.47
2018-08-11T07:44:13.929Z,1.70
2018-08-11T07:46:43.581Z,1.50
2018-08-11T07:49:13.394Z,1.50
2018-08-11T07:51:45.936Z,1.50
2018-08-11T07:54:15.584Z,1.33
2018-08-11T07:56:45.172Z,1.53
2018-08-11T07:59:15.019Z,1.83
2018-08-11T08:01:44.671Z,1.60
2018-08-11T08:04:14.318Z,1.47
2018-08-11T08:06:44.324Z,1.50
2018-08-11T08:09:14.757Z,1.37
2018-08-11T08:11:44.489Z,1.93
2018-08-11T08:14:14.844Z,1.50
2018-08-11T08:16:44.523Z,1.40
2018-08-11T08:19:14.350Z,1.60
2018-08-11T08:21:44.533Z,1.97
2018-08-11T08:24:14.139Z,1.70
2018-08-11T08:26:43.932Z,1.70
2018-08-11T08:29:15.003Z,1.90
2018-08-11T08:31:44.664Z,1.33
2018-08-11T08:34:14.371Z,1.70
2018-08-11T08:36:44.586Z,1.10
2018-08-11T08:39:14.275Z,1.47
2018-08-11T08:41:43.929Z,1.27
2018-08-11T08:44:14.099Z,1.27
2018-08-11T08:46:43.914Z,1.40
2018-08-11T08:49:15.065Z,1.30
2018-08-11T08:51:44.848Z,1.30
2018-08-11T08:54:14.532Z,1.50
2018-08-11T08:56:45.146Z,1.40
2018-08-11T08:59:15.703Z,1.80
2018-08-11T09:01:46.258Z,1.50
2018-08-11T09:04:17.558Z,1.20
2018-08-11T09:06:47.220Z,1.50
2018-08-11T09:09:16.938Z,1.43
2018-08-11T09:11:47.296Z,1.50
2018-08-11T09:14:24.807Z,1.20
2018-08-11T09:16:54.563Z,2.03
2018-08-11T09:19:24.201Z,1.80
2018-08-11T09:21:53.913Z,1.67
2018-08-11T09:24:23.543Z,1.53
2018-08-11T09:26:53.423Z,1.50
2018-08-11T09:29:23.070Z,1.50
2018-08-11T09:31:52.674Z,1.23
2018-08-11T09:34:22.420Z,1.70
2018-08-11T09:36:52.103Z,1.53
2018-08-11T09:39:21.763Z,1.80
2018-08-11T09:41:51.420Z,1.57
2018-08-11T09:44:21.072Z,1.43
2018-08-11T09:46:50.686Z,1.40
2018-08-11T09:49:20.345Z,1.50
2018-08-11T09:51:50.016Z,1.50
2018-08-11T09:54:19.613Z,1.47
2018-08-11T09:56:49.288Z,1.43
2018-08-11T09:59:18.987Z,1.40
2018-08-11T10:01:52.676Z,1.97
2018-08-11T10:04:22.287Z,1.53
2018-08-11T10:06:51.945Z,1.47
2018-08-11T10:09:21.575Z,1.63
2018-08-11T10:11:51.257Z,1.60
2018-08-11T10:14:20.837Z,1.47
2018-08-11T10:16:50.466Z,1.77
2018-08-11T10:19:20.186Z,1.23
2018-08-11T10:21:49.853Z,1.23
2018-08-11T10:24:19.594Z,1.40
2018-08-11T10:26:49.210Z,1.30
2018-08-11T10:29:18.888Z,1.40
2018-08-11T10:31:48.600Z,1.63
2018-08-11T10:34:20.279Z,1.50
2018-08-11T10:36:50.581Z,1.27
2018-08-11T10:39:20.330Z,1.30
2018-08-11T10:41:50.254Z,1.33
2018-08-11T10:44:22.790Z,1.40
2018-08-11T10:46:52.371Z,1.30
2018-08-11T10:49:22.035Z,1.47
2018-08-11T10:51:51.748Z,1.40
2018-08-11T10:54:21.414Z,1.60
2018-08-11T10:56:53.691Z,1.50
2018-08-11T10:59:23.343Z,1.70
2018-08-11T11:01:53.060Z,1.57
2018-08-11T11:04:22.791Z,1.70
2018-08-11T11:06:52.466Z,1.70
2018-08-11T11:09:22.081Z,1.50
2018-08-11T11:11:51.660Z,1.43
2018-08-11T11:14:21.277Z,1.33
2018-08-11T11:16:50.998Z,1.50
2018-08-11T11:19:20.735Z,1.40
2018-08-11T11:21:50.418Z,1.00
2018-08-11T11:24:20.029Z,1.57
2018-08-11T11:26:49.616Z,1.40
2018-08-11T11:29:19.293Z,1.20
2018-08-11T11:31:48.931Z,1.60
2018-08-11T11:34:18.529Z,1.50
2018-08-11T11:36:48.191Z,1.20
2018-08-11T11:39:17.796Z,1.20
2018-08-11T11:41:47.456Z,1.23
2018-08-11T11:44:17.464Z,1.20
2018-08-11T11:46:47.184Z,1.40
2018-08-11T11:49:16.820Z,1.57
2018-08-11T11:51:46.467Z,1.33
2018-08-11T11:54:16.081Z,1.50
2018-08-11T11:56:45.766Z,1.50
2018-08-11T11:59:16.053Z,1.53
2018-08-11T12:01:45.730Z,1.57
2018-08-11T12:04:15.355Z,1.30
2018-08-11T12:06:45.332Z,1.33
2018-08-11T12:09:14.984Z,1.67
2018-08-11T12:11:44.760Z,1.20
2018-08-11T12:14:15.367Z,1.10
2018-08-11T12:16:45.053Z,1.50
2018-08-11T12:19:14.793Z,1.20
2018-08-11T12:21:46.585Z,1.30
2018-08-11T12:24:16.246Z,1.37
2018-08-11T12:26:46.001Z,1.50
2018-08-11T12:29:16.200Z,1.37
2018-08-11T12:31:45.949Z,1.30
2018-08-11T12:34:15.589Z,1.30
2018-08-11T12:36:46.953Z,1.63
2018-08-11T12:39:16.629Z,1.20
2018-08-11T12:41:46.462Z,1.17
2018-08-11T12:44:17.310Z,1.60
2018-08-11T12:46:47.043Z,1.90
2018-08-11T12:49:16.758Z,1.93
2018-08-11T12:51:46.671Z,1.30
2018-08-11T12:54:16.280Z,1.37
2018-08-11T12:56:45.931Z,1.30
2018-08-11T12:59:15.956Z,1.53
2018-08-11T13:01:45.650Z,1.20
2018-08-11T13:04:15.328Z,1.43
2018-08-11T13:06:46.209Z,1.53
2018-08-11T13:09:15.849Z,1.53
2018-08-11T13:11:45.843Z,1.60
2018-08-11T13:14:15.704Z,1.40
2018-08-11T13:16:45.543Z,1.70
2018-08-11T13:19:15.310Z,1.37
2018-08-11T13:21:45.754Z,1.40
2018-08-11T13:24:15.461Z,1.43
2018-08-11T13:26:47.559Z,1.43
2018-08-11T13:29:17.634Z,1.77
2018-08-11T13:31:47.635Z,1.30
2018-08-11T13:34:17.320Z,1.50
2018-08-11T13:36:47.152Z,1.40
2018-08-11T13:39:16.818Z,1.17
2018-08-11T13:41:48.166Z,1.30
2018-08-11T13:44:19.388Z,1.10
2018-08-11T13:46:49.093Z,1.00
2018-08-11T13:49:18.730Z,1.30
2018-08-11T13:51:48.612Z,1.10
2018-08-11T13:54:18.223Z,1.17
2018-08-11T13:56:47.984Z,1.00
2018-08-11T13:59:18.041Z,1.20
2018-08-11T14:01:48.044Z,1.53
2018-08-11T14:04:17.809Z,1.30
2018-08-11T14:06:48.429Z,1.10
2018-08-11T14:09:18.072Z,1.07
2018-08-11T14:11:47.962Z,0.90
2018-08-11T14:14:18.024Z,1.00
2018-08-11T14:16:48.667Z,1.03
2018-08-11T14:19:18.331Z,0.70
2018-08-11T14:21:48.778Z,1.10
2018-08-11T14:24:18.424Z,0.83
2018-08-11T14:26:48.731Z,1.10
2018-08-11T14:29:18.700Z,1.00
2018-08-11T14:31:49.086Z,1.10
2018-08-11T14:34:18.858Z,0.83
2018-08-11T14:36:49.519Z,1.10
2018-08-11T14:39:19.240Z,1.17
2018-08-11T14:41:49.747Z,0.80
2018-08-11T14:44:19.574Z,1.00
2018-08-11T14:46:49.856Z,1.10
2018-08-11T14:49:19.450Z,1.57
2018-08-11T14:51:50.421Z,1.30
2018-08-11T14:54:20.073Z,1.00
2018-08-11T14:56:50.249Z,1.07
2018-08-11T14:59:19.834Z,0.90
2018-08-11T15:01:49.997Z,1.43
2018-08-11T15:04:19.794Z,1.00
2018-08-11T15:06:50.542Z,1.03
2018-08-11T15:09:20.186Z,1.10
2018-08-11T15:11:50.599Z,1.10
2018-08-11T15:14:20.258Z,1.10
2018-08-11T15:16:51.206Z,1.20
2018-08-11T15:19:20.868Z,1.30
2018-08-11T15:21:51.205Z,1.00
2018-08-11T15:24:20.806Z,1.10
2018-08-11T15:26:51.654Z,1.33
2018-08-11T15:29:21.359Z,1.10
2018-08-11T15:31:51.532Z,1.30
2018-08-11T15:34:21.166Z,1.00
2018-08-11T15:36:52.063Z,1.00
2018-08-11T15:39:21.869Z,1.10
2018-08-11T15:41:52.668Z,1.17
2018-08-11T15:44:23.249Z,1.40
2018-08-11T15:46:53.238Z,1.60
2018-08-11T15:49:23.337Z,1.40
2018-08-11T15:51:53.411Z,1.40
2018-08-11T15:54:23.101Z,1.37
2018-08-11T15:56:53.648Z,1.80
2018-08-11T15:59:23.517Z,1.30
2018-08-11T16:01:54.253Z,1.23
2018-08-11T16:04:30.989Z,1.50
2018-08-11T16:07:03.891Z,1.10
2018-08-11T16:09:33.704Z,1.20
2018-08-11T16:12:03.832Z,1.10
2018-08-11T16:14:33.487Z,1.10
2018-08-11T16:17:03.190Z,1.10
2018-08-11T16:19:32.944Z,1.30
2018-08-11T16:22:02.541Z,1.20
2018-08-11T16:24:32.210Z,0.90
2018-08-11T16:27:01.980Z,1.30
2018-08-11T16:29:31.645Z,0.90
2018-08-11T16:32:01.267Z,0.90
2018-08-11T16:34:30.893Z,1.50
2018-08-11T16:37:00.553Z,1.20
2018-08-11T16:39:30.297Z,1.03
2018-08-11T16:41:59.944Z,1.10
2018-08-11T16:44:29.558Z,1.10
2018-08-11T16:46:59.241Z,0.77
2018-08-11T16:49:28.850Z,1.10
2018-08-11T16:51:58.468Z,1.00
2018-08-11T16:54:28.109Z,1.00
2018-08-11T16:56:57.859Z,1.40
2018-08-11T16:59:27.487Z,1.17
2018-08-11T17:01:57.287Z,1.33
2018-08-11T17:04:26.899Z,1.20
2018-08-11T17:06:57.358Z,1.10
2018-08-11T17:09:27.133Z,1.23
2018-08-11T17:11:57.276Z,1.20
2018-08-11T17:14:26.892Z,1.17
2018-08-11T17:16:57.206Z,3.00
2018-08-11T17:19:26.910Z,6.47
2018-08-11T17:21:57.316Z,6.63
2018-08-11T17:24:27.025Z,5.27
2018-08-11T17:26:57.666Z,1.33
2018-08-11T17:29:27.560Z,1.20
2018-08-11T17:32:00.792Z,1.50
2018-08-11T17:34:31.250Z,1.40
2018-08-11T17:37:03.318Z,1.40
2018-08-11T17:39:34.121Z,1.40
2018-08-11T17:42:03.883Z,1.13
2018-08-11T17:44:34.720Z,1.50
2018-08-11T17:47:05.033Z,1.90
2018-08-11T17:49:35.606Z,1.53
2018-08-11T17:52:06.168Z,1.70
2018-08-11T17:54:36.079Z,1.37
2018-08-11T17:57:05.852Z,1.40
2018-08-11T17:59:35.450Z,1.20
2018-08-11T18:02:05.132Z,1.00
2018-08-11T18:04:34.766Z,1.30
2018-08-11T18:07:04.495Z,1.13
2018-08-11T18:09:34.057Z,1.20
2018-08-11T18:12:04.062Z,1.37
2018-08-11T18:14:33.660Z,1.40
2018-08-11T18:17:03.343Z,1.80
2018-08-11T18:19:32.965Z,1.30
2018-08-11T18:22:02.656Z,1.57
2018-08-11T18:24:32.268Z,1.23
2018-08-11T18:27:02.169Z,1.50
2018-08-11T18:29:31.892Z,1.30
2018-08-11T18:32:01.782Z,1.37
2018-08-11T18:34:31.423Z,1.40
2018-08-11T18:37:01.737Z,1.20
2018-08-11T18:39:31.386Z,1.20
2018-08-11T18:42:02.005Z,1.60
2018-08-11T18:44:31.738Z,1.20
2018-08-11T18:47:02.191Z,1.60
2018-08-11T18:49:31.844Z,1.47
2018-08-11T18:52:02.621Z,1.40
2018-08-11T18:54:32.298Z,1.53
2018-08-11T18:57:02.662Z,1.40
2018-08-11T18:59:32.357Z,1.20
2018-08-11T19:02:02.890Z,1.10
2018-08-11T19:04:32.584Z,1.20
2018-08-11T19:07:03.182Z,1.13
2018-08-11T19:09:32.805Z,1.20
2018-08-11T19:12:02.812Z,1.30
2018-08-11T19:14:32.516Z,1.30
2018-08-11T19:17:02.241Z,1.00
2018-08-11T19:19:32.096Z,1.20
2018-08-11T19:22:01.748Z,1.10
2018-08-11T19:24:31.458Z,1.20
2018-08-11T19:27:08.406Z,1.50
2018-08-11T19:29:38.038Z,1.20
2018-08-11T19:32:08.748Z,1.30
2018-08-11T19:34:38.460Z,1.27
2018-08-11T19:37:08.992Z,1.30
2018-08-11T19:39:39.203Z,1.30
2018-08-11T19:42:09.734Z,1.30
2018-08-11T19:44:39.397Z,1.30
2018-08-11T19:47:09.735Z,1.60
2018-08-11T19:49:39.450Z,1.23
2018-08-11T19:52:09.626Z,1.70
2018-08-11T19:54:40.804Z,1.80
2018-08-11T19:57:11.322Z,1.57
2018-08-11T19:59:41.074Z,1.43
2018-08-11T20:02:11.832Z,1.37
2018-08-11T20:04:41.465Z,1.20
2018-08-11T20:07:11.683Z,1.83
2018-08-11T20:09:42.010Z,1.40
2018-08-11T20:12:12.421Z,1.37
2018-08-11T20:14:42.154Z,1.40
2018-08-11T20:17:12.914Z,1.50
2018-08-11T20:19:43.111Z,1.40
2018-08-11T20:22:18.271Z,1.73
2018-08-11T20:24:48.215Z,1.43
2018-08-11T20:27:17.979Z,1.93
2018-08-11T20:29:47.608Z,2.23
2018-08-11T20:32:17.489Z,2.00
2018-08-11T20:34:47.184Z,1.70
2018-08-11T20:37:16.881Z,2.03
2018-08-11T20:39:46.622Z,2.10
2018-08-11T20:42:16.264Z,1.60
2018-08-11T20:44:45.978Z,1.57
2018-08-11T20:47:16.441Z,1.73
2018-08-11T20:49:46.353Z,1.30
2018-08-11T20:52:16.082Z,1.40
2018-08-11T20:54:45.747Z,1.60
2018-08-11T20:57:15.606Z,1.47
2018-08-11T20:59:45.378Z,2.00
2018-08-11T21:02:16.216Z,1.43
2018-08-11T21:04:45.983Z,1.67
2018-08-11T21:07:15.638Z,1.20
2018-08-11T21:09:45.814Z,1.70
2018-08-11T21:12:15.416Z,1.40
2018-08-11T21:14:45.169Z,1.27
2018-08-11T21:17:16.359Z,1.43
2018-08-11T21:19:46.069Z,1.50
2018-08-11T21:22:15.694Z,1.50
2018-08-11T21:24:45.677Z,1.57
2018-08-11T21:27:15.490Z,1.60
2018-08-11T21:29:45.166Z,2.20
2018-08-11T21:32:16.571Z,1.80
2018-08-11T21:34:46.195Z,1.60
2018-08-11T21:37:16.007Z,1.63
2018-08-11T21:39:45.625Z,1.17
2018-08-11T21:42:16.338Z,1.40
2018-08-11T21:44:46.428Z,1.60
2018-08-11T21:47:17.256Z,1.07
2018-08-11T21:49:47.849Z,1.20
2018-08-11T21:52:17.590Z,1.10
2018-08-11T21:54:47.582Z,1.13
2018-08-11T21:57:17.402Z,1.23
2018-08-11T21:59:47.298Z,1.20
2018-08-11T22:02:17.457Z,1.53
2018-08-11T22:04:47.702Z,1.40
2018-08-11T22:07:17.515Z,1.90
2018-08-11T22:09:47.387Z,1.93
2018-08-11T22:12:17.497Z,3.27
2018-08-11T22:14:47.331Z,2.60
2018-08-11T22:17:18.009Z,3.07
2018-08-11T22:19:47.799Z,2.43
2018-08-11T22:22:18.136Z,1.93
2018-08-11T22:24:48.658Z,2.73
2018-08-11T22:27:18.414Z,1.30
2018-08-11T22:29:48.015Z,1.37
2018-08-11T22:32:18.123Z,1.50
2018-08-11T22:34:47.991Z,1.53
2018-08-11T22:37:18.330Z,1.30
2018-08-11T22:39:47.982Z,1.30
2018-08-11T22:42:18.366Z,1.53
2018-08-11T22:44:48.097Z,1.40
2018-08-11T22:47:18.394Z,1.77
2018-08-11T22:49:48.012Z,1.50
2018-08-11T22:52:18.015Z,1.63
2018-08-11T22:54:47.697Z,2.00
2018-08-11T22:57:17.685Z,1.93
2018-08-11T22:59:47.641Z,1.90
2018-08-11T23:02:17.672Z,1.93
2018-08-11T23:04:47.676Z,1.80
2018-08-11T23:07:17.644Z,1.80
2018-08-11T23:09:47.649Z,1.77
2018-08-11T23:12:17.874Z,2.20
2018-08-11T23:14:47.846Z,3.10
2018-08-11T23:17:18.699Z,2.90
2018-08-11T23:19:48.325Z,3.43
2018-08-11T23:22:18.725Z,3.93
2018-08-11T23:24:48.399Z,4.60
2018-08-11T23:27:18.333Z,3.47
2018-08-11T23:29:47.973Z,2.27
2018-08-11T23:32:18.727Z,2.33
2018-08-11T23:34:48.398Z,1.80
2018-08-11T23:37:18.091Z,2.53
2018-08-11T23:39:47.796Z,3.03
2018-08-11T23:42:17.645Z,3.23
2018-08-11T23:44:47.302Z,2.57
2018-08-11T23:47:17.259Z,1.60
2018-08-11T23:49:46.965Z,1.97
2018-08-11T23:52:16.641Z,1.50
2018-08-11T23:54:46.315Z,1.60
2018-08-11T23:57:15.993Z,1.53
2018-08-11T23:59:45.724Z,1.20
